sensor_id;sensor_type;location;lat;lon;timestamp;P1;durP1;ratioP1;P2;durP2;ratioP2
18507;SDS011;9383;50.928;12.116;2023-03-20T00:01:53;2.97;;;2.60;;
18507;SDS011;9383;50.928;12.116;2023-03-20T00:04:20;3.03;;;2.50;;
18507;SDS011;9383;50.928;12.116;2023-03-20T00:06:47;2.67;;;2.47;;
18507;SDS011;9383;50.928;12.116;2023-03-20T00:09:14;2.80;;;2.60;;
18507;SDS011;9383;50.928;12.116;2023-03-20T00:11:49;2.92;;;2.72;;
18507;SDS011;9383;50.928;12.116;2023-03-20T00:14:17;3.10;;;2.90;;
18507;SDS011;9383;50.928;12.116;2023-03-20T00:16:47;2.92;;;2.63;;
18507;SDS011;9383;50.928;12.116;2023-03-20T00:19:16;3.00;;;2.80;;
18507;SDS011;9383;50.928;12.116;2023-03-20T00:21:50;2.67;;;2.47;;
18507;SDS011;9383;50.928;12.116;2023-03-20T00:24:18;3.30;;;3.00;;
18507;SDS011;9383;50.928;12.116;2023-03-20T00:26:45;2.60;;;2.40;;
18507;SDS011;9383;50.928;12.116;2023-03-20T00:29:24;3.28;;;2.60;;
18507;SDS011;9383;50.928;12.116;2023-03-20T00:31:53;4.03;;;2.78;;
18507;SDS011;9383;50.928;12.116;2023-03-20T00:34:21;3.80;;;3.00;;
18507;SDS011;9383;50.928;12.116;2023-03-20T00:36:52;3.15;;;2.85;;
18507;SDS011;9383;50.928;12.116;2023-03-20T00:39:19;3.15;;;2.85;;
18507;SDS011;9383;50.928;12.116;2023-03-20T00:41:47;3.85;;;2.70;;
18507;SDS011;9383;50.928;12.116;2023-03-20T00:44:23;6.35;;;2.72;;
18507;SDS011;9383;50.928;12.116;2023-03-20T00:47:05;3.05;;;2.85;;
18507;SDS011;9383;50.928;12.116;2023-03-20T00:49:40;4.38;;;2.75;;
18507;SDS011;9383;50.928;12.116;2023-03-20T00:52:08;3.13;;;2.92;;
18507;SDS011;9383;50.928;12.116;2023-03-20T00:54:37;3.95;;;2.95;;
18507;SDS011;9383;50.928;12.116;2023-03-20T00:57:05;3.38;;;3.13;;
18507;SDS011;9383;50.928;12.116;2023-03-20T00:59:52;3.45;;;2.95;;
18507;SDS011;9383;50.928;12.116;2023-03-20T01:02:26;2.72;;;2.53;;
18507;SDS011;9383;50.928;12.116;2023-03-20T01:04:55;2.97;;;2.78;;
18507;SDS011;9383;50.928;12.116;2023-03-20T01:07:22;3.08;;;2.65;;
18507;SDS011;9383;50.928;12.116;2023-03-20T01:09:49;5.13;;;2.85;;
18507;SDS011;9383;50.928;12.116;2023-03-20T01:12:17;4.13;;;2.75;;
18507;SDS011;9383;50.928;12.116;2023-03-20T01:14:43;2.72;;;2.53;;
18507;SDS011;9383;50.928;12.116;2023-03-20T01:17:16;2.80;;;2.58;;
18507;SDS011;9383;50.928;12.116;2023-03-20T01:19:45;2.90;;;2.70;;
18507;SDS011;9383;50.928;12.116;2023-03-20T01:22:12;2.55;;;2.38;;
18507;SDS011;9383;50.928;12.116;2023-03-20T01:24:39;2.90;;;2.70;;
18507;SDS011;9383;50.928;12.116;2023-03-20T01:27:16;2.92;;;2.63;;
18507;SDS011;9383;50.928;12.116;2023-03-20T01:29:43;2.78;;;2.58;;
18507;SDS011;9383;50.928;12.116;2023-03-20T01:32:12;2.50;;;2.38;;
18507;SDS011;9383;50.928;12.116;2023-03-20T01:34:41;2.80;;;2.60;;
18507;SDS011;9383;50.928;12.116;2023-03-20T01:37:11;2.50;;;2.30;;
18507;SDS011;9383;50.928;12.116;2023-03-20T01:39:42;2.45;;;2.25;;
18507;SDS011;9383;50.928;12.116;2023-03-20T01:42:10;2.42;;;2.28;;
18507;SDS011;9383;50.928;12.116;2023-03-20T01:44:40;2.58;;;2.38;;
18507;SDS011;9383;50.928;12.116;2023-03-20T01:47:11;2.35;;;2.15;;
18507;SDS011;9383;50.928;12.116;2023-03-20T01:50:13;3.17;;;2.33;;
18507;SDS011;9383;50.928;12.116;2023-03-20T01:55:45;2.53;;;2.30;;
18507;SDS011;9383;50.928;12.116;2023-03-20T01:58:15;2.58;;;2.30;;
18507;SDS011;9383;50.928;12.116;2023-03-20T02:00:46;2.40;;;2.15;;
18507;SDS011;9383;50.928;12.116;2023-03-20T02:03:15;2.60;;;2.40;;
18507;SDS011;9383;50.928;12.116;2023-03-20T02:05:43;2.78;;;2.58;;
18507;SDS011;9383;50.928;12.116;2023-03-20T02:08:14;2.20;;;2.10;;
18507;SDS011;9383;50.928;12.116;2023-03-20T02:10:45;2.13;;;1.80;;
18507;SDS011;9383;50.928;12.116;2023-03-20T02:13:14;2.40;;;2.25;;
18507;SDS011;9383;50.928;12.116;2023-03-20T02:18:27;1.75;;;1.65;;
18507;SDS011;9383;50.928;12.116;2023-03-20T02:21:01;1.90;;;1.80;;
18507;SDS011;9383;50.928;12.116;2023-03-20T02:24:13;7.03;;;2.00;;
18507;SDS011;9383;50.928;12.116;2023-03-20T02:30:37;1.90;;;1.70;;
18507;SDS011;9383;50.928;12.116;2023-03-20T02:33:41;1.98;;;1.83;;
18507;SDS011;9383;50.928;12.116;2023-03-20T02:36:39;2.00;;;1.88;;
18507;SDS011;9383;50.928;12.116;2023-03-20T02:42:09;2.30;;;1.58;;
18507;SDS011;9383;50.928;12.116;2023-03-20T02:48:10;1.52;;;1.42;;
18507;SDS011;9383;50.928;12.116;2023-03-20T02:50:58;2.00;;;1.80;;
18507;SDS011;9383;50.928;12.116;2023-03-20T02:56:45;1.95;;;1.85;;
18507;SDS011;9383;50.928;12.116;2023-03-20T03:02:22;1.77;;;1.67;;
18507;SDS011;9383;50.928;12.116;2023-03-20T03:05:01;1.90;;;1.80;;
18507;SDS011;9383;50.928;12.116;2023-03-20T03:07:37;1.90;;;1.80;;
18507;SDS011;9383;50.928;12.116;2023-03-20T03:10:11;1.95;;;1.73;;
18507;SDS011;9383;50.928;12.116;2023-03-20T03:12:51;1.67;;;1.58;;
18507;SDS011;9383;50.928;12.116;2023-03-20T03:15:25;2.47;;;1.70;;
18507;SDS011;9383;50.928;12.116;2023-03-20T03:17:56;1.92;;;1.83;;
18507;SDS011;9383;50.928;12.116;2023-03-20T03:20:26;1.92;;;1.60;;
18507;SDS011;9383;50.928;12.116;2023-03-20T03:23:00;2.65;;;1.70;;
18507;SDS011;9383;50.928;12.116;2023-03-20T03:25:33;2.13;;;1.95;;
18507;SDS011;9383;50.928;12.116;2023-03-20T03:30:54;1.60;;;1.50;;
18507;SDS011;9383;50.928;12.116;2023-03-20T03:33:22;2.08;;;1.88;;
18507;SDS011;9383;50.928;12.116;2023-03-20T03:36:00;3.40;;;1.80;;
18507;SDS011;9383;50.928;12.116;2023-03-20T03:38:42;2.65;;;2.10;;
18507;SDS011;9383;50.928;12.116;2023-03-20T03:41:24;1.83;;;1.70;;
18507;SDS011;9383;50.928;12.116;2023-03-20T03:49:32;2.38;;;2.20;;
18507;SDS011;9383;50.928;12.116;2023-03-20T03:52:07;1.83;;;1.73;;
18507;SDS011;9383;50.928;12.116;2023-03-20T03:57:33;1.92;;;1.83;;
18507;SDS011;9383;50.928;12.116;2023-03-20T04:00:04;2.30;;;2.20;;
18507;SDS011;9383;50.928;12.116;2023-03-20T04:02:33;2.22;;;2.05;;
18507;SDS011;9383;50.928;12.116;2023-03-20T04:05:00;2.67;;;2.20;;
18507;SDS011;9383;50.928;12.116;2023-03-20T04:07:27;2.50;;;2.30;;
18507;SDS011;9383;50.928;12.116;2023-03-20T04:09:54;2.10;;;2.00;;
18507;SDS011;9383;50.928;12.116;2023-03-20T04:12:31;2.92;;;2.33;;
18507;SDS011;9383;50.928;12.116;2023-03-20T04:15:03;2.40;;;2.30;;
18507;SDS011;9383;50.928;12.116;2023-03-20T04:17:29;2.92;;;2.45;;
18507;SDS011;9383;50.928;12.116;2023-03-20T04:19:56;2.40;;;2.22;;
18507;SDS011;9383;50.928;12.116;2023-03-20T04:22:23;3.08;;;2.88;;
18507;SDS011;9383;50.928;12.116;2023-03-20T04:24:50;3.08;;;2.78;;
18507;SDS011;9383;50.928;12.116;2023-03-20T04:27:17;2.97;;;2.70;;
18507;SDS011;9383;50.928;12.116;2023-03-20T04:29:44;3.38;;;3.15;;
18507;SDS011;9383;50.928;12.116;2023-03-20T04:32:10;3.20;;;3.00;;
18507;SDS011;9383;50.928;12.116;2023-03-20T04:34:37;3.30;;;3.00;;
18507;SDS011;9383;50.928;12.116;2023-03-20T04:37:03;3.83;;;3.40;;
18507;SDS011;9383;50.928;12.116;2023-03-20T04:39:32;3.30;;;3.00;;
18507;SDS011;9383;50.928;12.116;2023-03-20T04:42:01;3.22;;;3.03;;
18507;SDS011;9383;50.928;12.116;2023-03-20T04:44:30;4.43;;;3.30;;
18507;SDS011;9383;50.928;12.116;2023-03-20T04:46:56;4.78;;;3.42;;
18507;SDS011;9383;50.928;12.116;2023-03-20T04:49:23;4.10;;;3.72;;
18507;SDS011;9383;50.928;12.116;2023-03-20T04:51:50;3.70;;;3.40;;
18507;SDS011;9383;50.928;12.116;2023-03-20T04:54:16;4.18;;;3.75;;
18507;SDS011;9383;50.928;12.116;2023-03-20T04:56:43;4.07;;;3.78;;
18507;SDS011;9383;50.928;12.116;2023-03-20T04:59:09;4.60;;;4.13;;
18507;SDS011;9383;50.928;12.116;2023-03-20T05:01:36;4.90;;;4.50;;
18507;SDS011;9383;50.928;12.116;2023-03-20T05:04:02;5.75;;;4.15;;
18507;SDS011;9383;50.928;12.116;2023-03-20T05:06:29;3.90;;;3.60;;
18507;SDS011;9383;50.928;12.116;2023-03-20T05:08:57;4.60;;;4.20;;
18507;SDS011;9383;50.928;12.116;2023-03-20T05:11:25;4.70;;;4.30;;
18507;SDS011;9383;50.928;12.116;2023-03-20T05:13:52;4.60;;;4.20;;
18507;SDS011;9383;50.928;12.116;2023-03-20T05:16:19;4.53;;;4.13;;
18507;SDS011;9383;50.928;12.116;2023-03-20T05:18:45;8.07;;;4.10;;
18507;SDS011;9383;50.928;12.116;2023-03-20T05:21:12;6.65;;;4.03;;
18507;SDS011;9383;50.928;12.116;2023-03-20T05:23:38;4.50;;;4.10;;
18507;SDS011;9383;50.928;12.116;2023-03-20T05:26:05;4.97;;;4.20;;
18507;SDS011;9383;50.928;12.116;2023-03-20T05:28:32;4.55;;;4.20;;
18507;SDS011;9383;50.928;12.116;2023-03-20T05:30:58;4.57;;;4.20;;
18507;SDS011;9383;50.928;12.116;2023-03-20T05:33:25;4.88;;;4.35;;
18507;SDS011;9383;50.928;12.116;2023-03-20T05:35:51;3.97;;;3.70;;
18507;SDS011;9383;50.928;12.116;2023-03-20T05:38:18;5.78;;;4.15;;
18507;SDS011;9383;50.928;12.116;2023-03-20T05:40:47;4.30;;;3.97;;
18507;SDS011;9383;50.928;12.116;2023-03-20T05:43:14;4.25;;;3.88;;
18507;SDS011;9383;50.928;12.116;2023-03-20T05:45:41;4.13;;;3.83;;
18507;SDS011;9383;50.928;12.116;2023-03-20T05:48:08;4.22;;;3.92;;
18507;SDS011;9383;50.928;12.116;2023-03-20T05:50:35;3.75;;;3.45;;
18507;SDS011;9383;50.928;12.116;2023-03-20T05:53:01;4.20;;;3.88;;
18507;SDS011;9383;50.928;12.116;2023-03-20T05:55:28;3.70;;;3.40;;
18507;SDS011;9383;50.928;12.116;2023-03-20T05:57:54;3.92;;;3.47;;
18507;SDS011;9383;50.928;12.116;2023-03-20T06:00:21;3.90;;;3.60;;
18507;SDS011;9383;50.928;12.116;2023-03-20T06:02:48;4.35;;;3.40;;
18507;SDS011;9383;50.928;12.116;2023-03-20T06:05:14;6.38;;;3.63;;
18507;SDS011;9383;50.928;12.116;2023-03-20T06:07:41;3.55;;;3.30;;
18507;SDS011;9383;50.928;12.116;2023-03-20T06:10:08;3.40;;;3.20;;
18507;SDS011;9383;50.928;12.116;2023-03-20T06:12:35;3.72;;;3.42;;
18507;SDS011;9383;50.928;12.116;2023-03-20T06:15:01;3.47;;;3.17;;
18507;SDS011;9383;50.928;12.116;2023-03-20T06:17:28;3.97;;;3.67;;
18507;SDS011;9383;50.928;12.116;2023-03-20T06:19:55;3.42;;;3.22;;
18507;SDS011;9383;50.928;12.116;2023-03-20T06:22:22;3.80;;;3.50;;
18507;SDS011;9383;50.928;12.116;2023-03-20T06:24:48;3.90;;;3.60;;
18507;SDS011;9383;50.928;12.116;2023-03-20T06:27:15;3.80;;;3.50;;
18507;SDS011;9383;50.928;12.116;2023-03-20T06:29:41;3.65;;;3.35;;
18507;SDS011;9383;50.928;12.116;2023-03-20T06:32:07;3.88;;;3.58;;
18507;SDS011;9383;50.928;12.116;2023-03-20T06:34:35;4.07;;;3.28;;
18507;SDS011;9383;50.928;12.116;2023-03-20T06:37:02;3.85;;;3.55;;
18507;SDS011;9383;50.928;12.116;2023-03-20T06:39:28;4.72;;;3.97;;
18507;SDS011;9383;50.928;12.116;2023-03-20T06:41:55;3.50;;;3.20;;
18507;SDS011;9383;50.928;12.116;2023-03-20T06:44:21;4.07;;;3.78;;
18507;SDS011;9383;50.928;12.116;2023-03-20T06:46:50;4.60;;;4.30;;
18507;SDS011;9383;50.928;12.116;2023-03-20T06:49:17;3.80;;;3.50;;
18507;SDS011;9383;50.928;12.116;2023-03-20T06:51:45;4.55;;;4.13;;
18507;SDS011;9383;50.928;12.116;2023-03-20T06:54:12;4.60;;;4.13;;
18507;SDS011;9383;50.928;12.116;2023-03-20T06:56:39;4.07;;;3.78;;
18507;SDS011;9383;50.928;12.116;2023-03-20T06:59:05;4.00;;;3.70;;
18507;SDS011;9383;50.928;12.116;2023-03-20T07:01:32;4.38;;;4.03;;
18507;SDS011;9383;50.928;12.116;2023-03-20T07:03:58;4.30;;;4.00;;
18507;SDS011;9383;50.928;12.116;2023-03-20T07:06:26;3.90;;;3.60;;
18507;SDS011;9383;50.928;12.116;2023-03-20T07:08:52;3.70;;;3.50;;
18507;SDS011;9383;50.928;12.116;2023-03-20T07:11:19;3.65;;;3.40;;
18507;SDS011;9383;50.928;12.116;2023-03-20T07:13:46;3.97;;;3.67;;
18507;SDS011;9383;50.928;12.116;2023-03-20T07:16:13;5.07;;;4.55;;
18507;SDS011;9383;50.928;12.116;2023-03-20T07:18:39;9.85;;;7.47;;
18507;SDS011;9383;50.928;12.116;2023-03-20T07:21:06;10.15;;;6.40;;
18507;SDS011;9383;50.928;12.116;2023-03-20T07:23:33;5.35;;;4.85;;
18507;SDS011;9383;50.928;12.116;2023-03-20T07:26:00;5.03;;;4.20;;
18507;SDS011;9383;50.928;12.116;2023-03-20T07:28:27;3.92;;;3.55;;
18507;SDS011;9383;50.928;12.116;2023-03-20T07:30:54;3.90;;;3.60;;
18507;SDS011;9383;50.928;12.116;2023-03-20T07:33:21;3.90;;;3.65;;
18507;SDS011;9383;50.928;12.116;2023-03-20T07:35:50;3.90;;;3.60;;
18507;SDS011;9383;50.928;12.116;2023-03-20T07:38:18;4.53;;;3.50;;
18507;SDS011;9383;50.928;12.116;2023-03-20T07:40:45;3.80;;;3.50;;
18507;SDS011;9383;50.928;12.116;2023-03-20T07:43:13;4.82;;;3.63;;
18507;SDS011;9383;50.928;12.116;2023-03-20T07:45:41;3.78;;;3.20;;
18507;SDS011;9383;50.928;12.116;2023-03-20T07:48:07;3.45;;;3.15;;
18507;SDS011;9383;50.928;12.116;2023-03-20T07:50:34;3.90;;;3.50;;
18507;SDS011;9383;50.928;12.116;2023-03-20T07:53:01;3.30;;;3.10;;
18507;SDS011;9383;50.928;12.116;2023-03-20T07:55:27;3.97;;;3.38;;
18507;SDS011;9383;50.928;12.116;2023-03-20T07:57:54;3.00;;;2.80;;
18507;SDS011;9383;50.928;12.116;2023-03-20T08:00:20;3.75;;;3.22;;
18507;SDS011;9383;50.928;12.116;2023-03-20T08:02:47;3.72;;;3.38;;
18507;SDS011;9383;50.928;12.116;2023-03-20T08:05:13;3.70;;;3.40;;
18507;SDS011;9383;50.928;12.116;2023-03-20T08:07:40;3.70;;;3.35;;
18507;SDS011;9383;50.928;12.116;2023-03-20T08:10:07;3.80;;;3.20;;
18507;SDS011;9383;50.928;12.116;2023-03-20T08:12:34;4.75;;;3.75;;
18507;SDS011;9383;50.928;12.116;2023-03-20T08:15:01;4.15;;;3.60;;
18507;SDS011;9383;50.928;12.116;2023-03-20T08:17:28;4.50;;;3.58;;
18507;SDS011;9383;50.928;12.116;2023-03-20T08:19:54;4.05;;;3.65;;
18507;SDS011;9383;50.928;12.116;2023-03-20T08:22:21;3.85;;;3.55;;
18507;SDS011;9383;50.928;12.116;2023-03-20T08:24:47;3.63;;;3.17;;
18507;SDS011;9383;50.928;12.116;2023-03-20T08:27:14;4.03;;;3.63;;
18507;SDS011;9383;50.928;12.116;2023-03-20T08:29:41;3.70;;;3.40;;
18507;SDS011;9383;50.928;12.116;2023-03-20T08:32:07;4.40;;;4.10;;
18507;SDS011;9383;50.928;12.116;2023-03-20T08:34:34;4.63;;;4.22;;
18507;SDS011;9383;50.928;12.116;2023-03-20T08:37:01;4.55;;;4.05;;
18507;SDS011;9383;50.928;12.116;2023-03-20T08:39:29;3.95;;;3.58;;
18507;SDS011;9383;50.928;12.116;2023-03-20T08:41:57;3.88;;;3.58;;
18507;SDS011;9383;50.928;12.116;2023-03-20T08:44:23;4.07;;;3.75;;
18507;SDS011;9383;50.928;12.116;2023-03-20T08:46:51;4.20;;;3.80;;
18507;SDS011;9383;50.928;12.116;2023-03-20T08:49:19;3.75;;;3.47;;
18507;SDS011;9383;50.928;12.116;2023-03-20T08:51:45;3.72;;;3.42;;
18507;SDS011;9383;50.928;12.116;2023-03-20T08:54:12;4.82;;;3.85;;
18507;SDS011;9383;50.928;12.116;2023-03-20T08:56:40;4.68;;;4.28;;
18507;SDS011;9383;50.928;12.116;2023-03-20T08:59:07;4.32;;;4.03;;
18507;SDS011;9383;50.928;12.116;2023-03-20T09:01:33;4.72;;;4.32;;
18507;SDS011;9383;50.928;12.116;2023-03-20T09:03:59;5.30;;;4.68;;
18507;SDS011;9383;50.928;12.116;2023-03-20T09:06:26;4.88;;;4.47;;
18507;SDS011;9383;50.928;12.116;2023-03-20T09:08:54;5.30;;;4.80;;
18507;SDS011;9383;50.928;12.116;2023-03-20T09:11:21;6.13;;;5.50;;
18507;SDS011;9383;50.928;12.116;2023-03-20T09:13:48;6.93;;;6.30;;
18507;SDS011;9383;50.928;12.116;2023-03-20T09:16:14;6.43;;;5.82;;
18507;SDS011;9383;50.928;12.116;2023-03-20T09:18:41;7.22;;;6.30;;
18507;SDS011;9383;50.928;12.116;2023-03-20T09:21:07;6.03;;;5.53;;
18507;SDS011;9383;50.928;12.116;2023-03-20T09:23:34;6.03;;;5.53;;
18507;SDS011;9383;50.928;12.116;2023-03-20T09:26:01;9.20;;;8.25;;
18507;SDS011;9383;50.928;12.116;2023-03-20T09:28:27;6.78;;;6.10;;
18507;SDS011;9383;50.928;12.116;2023-03-20T09:30:57;7.00;;;6.10;;
18507;SDS011;9383;50.928;12.116;2023-03-20T09:33:24;6.90;;;6.20;;
18507;SDS011;9383;50.928;12.116;2023-03-20T09:35:50;9.18;;;8.38;;
18507;SDS011;9383;50.928;12.116;2023-03-20T09:38:17;6.68;;;6.07;;
18507;SDS011;9383;50.928;12.116;2023-03-20T09:49:34;7.80;;;6.57;;
18507;SDS011;9383;50.928;12.116;2023-03-20T09:52:29;7.40;;;6.70;;
18507;SDS011;9383;50.928;12.116;2023-03-20T09:55:04;7.47;;;6.78;;
18507;SDS011;9383;50.928;12.116;2023-03-20T09:57:48;7.40;;;6.70;;
18507;SDS011;9383;50.928;12.116;2023-03-20T10:00:19;7.60;;;6.90;;
18507;SDS011;9383;50.928;12.116;2023-03-20T10:05:28;9.70;;;8.88;;
18507;SDS011;9383;50.928;12.116;2023-03-20T10:08:02;10.00;;;9.00;;
18507;SDS011;9383;50.928;12.116;2023-03-20T10:16:21;10.60;;;9.60;;
18507;SDS011;9383;50.928;12.116;2023-03-20T10:21:32;10.95;;;9.88;;
18507;SDS011;9383;50.928;12.116;2023-03-20T10:24:48;10.18;;;9.18;;
18507;SDS011;9383;50.928;12.116;2023-03-20T10:27:14;10.13;;;9.23;;
18507;SDS011;9383;50.928;12.116;2023-03-20T10:32:37;9.75;;;8.85;;
18507;SDS011;9383;50.928;12.116;2023-03-20T10:38:41;9.93;;;9.02;;
18507;SDS011;9383;50.928;12.116;2023-03-20T10:41:19;11.80;;;10.70;;
18507;SDS011;9383;50.928;12.116;2023-03-20T10:43:50;11.20;;;10.20;;
18507;SDS011;9383;50.928;12.116;2023-03-20T10:46:31;12.27;;;11.13;;
18507;SDS011;9383;50.928;12.116;2023-03-20T10:49:14;11.80;;;10.60;;
18507;SDS011;9383;50.928;12.116;2023-03-20T10:57:04;12.13;;;10.98;;
18507;SDS011;9383;50.928;12.116;2023-03-20T10:59:39;10.90;;;9.95;;
18507;SDS011;9383;50.928;12.116;2023-03-20T11:02:13;11.10;;;10.07;;
18507;SDS011;9383;50.928;12.116;2023-03-20T11:04:41;12.15;;;10.95;;
18507;SDS011;9383;50.928;12.116;2023-03-20T11:07:12;11.45;;;10.38;;
18507;SDS011;9383;50.928;12.116;2023-03-20T11:15:21;8.32;;;7.63;;
18507;SDS011;9383;50.928;12.116;2023-03-20T11:17:59;9.98;;;9.07;;
18507;SDS011;9383;50.928;12.116;2023-03-20T11:21:12;10.68;;;9.77;;
18507;SDS011;9383;50.928;12.116;2023-03-20T11:23:25;11.63;;;10.60;;
18507;SDS011;9383;50.928;12.116;2023-03-20T11:26:02;11.65;;;10.55;;
18507;SDS011;9383;50.928;12.116;2023-03-20T11:28:37;11.50;;;10.38;;
18507;SDS011;9383;50.928;12.116;2023-03-20T11:31:06;12.77;;;11.68;;
18507;SDS011;9383;50.928;12.116;2023-03-20T11:33:44;11.20;;;10.13;;
18507;SDS011;9383;50.928;12.116;2023-03-20T11:36:22;10.82;;;9.82;;
18507;SDS011;9383;50.928;12.116;2023-03-20T11:38:52;11.27;;;10.27;;
18507;SDS011;9383;50.928;12.116;2023-03-20T11:41:26;12.30;;;11.07;;
18507;SDS011;9383;50.928;12.116;2023-03-20T11:43:53;12.80;;;11.60;;
18507;SDS011;9383;50.928;12.116;2023-03-20T11:46:20;12.88;;;11.57;;
18507;SDS011;9383;50.928;12.116;2023-03-20T11:49:05;12.55;;;11.35;;
18507;SDS011;9383;50.928;12.116;2023-03-20T11:51:44;12.70;;;11.50;;
18507;SDS011;9383;50.928;12.116;2023-03-20T11:54:20;11.82;;;10.73;;
18507;SDS011;9383;50.928;12.116;2023-03-20T11:56:53;11.80;;;10.60;;
18507;SDS011;9383;50.928;12.116;2023-03-20T11:59:34;10.60;;;9.48;;
18507;SDS011;9383;50.928;12.116;2023-03-20T12:02:02;9.77;;;8.88;;
18507;SDS011;9383;50.928;12.116;2023-03-20T12:04:41;9.30;;;8.40;;
18507;SDS011;9383;50.928;12.116;2023-03-20T12:07:15;9.10;;;8.30;;
18507;SDS011;9383;50.928;12.116;2023-03-20T12:10:03;10.93;;;7.45;;
18507;SDS011;9383;50.928;12.116;2023-03-20T12:17:59;9.40;;;8.48;;
18507;SDS011;9383;50.928;12.116;2023-03-20T12:20:37;7.25;;;6.55;;
18507;SDS011;9383;50.928;12.116;2023-03-20T12:23:32;6.68;;;6.07;;
18507;SDS011;9383;50.928;12.116;2023-03-20T12:26:27;6.88;;;6.28;;
18507;SDS011;9383;50.928;12.116;2023-03-20T12:29:29;7.85;;;7.15;;
18507;SDS011;9383;50.928;12.116;2023-03-20T12:34:58;8.10;;;7.40;;
18507;SDS011;9383;50.928;12.116;2023-03-20T12:37:29;8.23;;;7.53;;
18507;SDS011;9383;50.928;12.116;2023-03-20T12:39:57;8.30;;;7.53;;
18507;SDS011;9383;50.928;12.116;2023-03-20T12:42:36;8.02;;;7.22;;
18507;SDS011;9383;50.928;12.116;2023-03-20T12:45:16;7.68;;;7.00;;
18507;SDS011;9383;50.928;12.116;2023-03-20T12:48:05;8.13;;;7.43;;
18507;SDS011;9383;50.928;12.116;2023-03-20T12:53:30;8.23;;;7.50;;
18507;SDS011;9383;50.928;12.116;2023-03-20T12:59:22;7.43;;;6.72;;
18507;SDS011;9383;50.928;12.116;2023-03-20T13:02:01;7.40;;;6.75;;
18507;SDS011;9383;50.928;12.116;2023-03-20T13:05:14;7.55;;;6.80;;
18507;SDS011;9383;50.928;12.116;2023-03-20T13:10:29;8.25;;;7.55;;
18507;SDS011;9383;50.928;12.116;2023-03-20T13:13:25;7.60;;;7.00;;
18507;SDS011;9383;50.928;12.116;2023-03-20T13:16:08;8.00;;;7.30;;
18507;SDS011;9383;50.928;12.116;2023-03-20T13:19:06;7.63;;;7.00;;
18507;SDS011;9383;50.928;12.116;2023-03-20T13:21:52;8.63;;;7.82;;
18507;SDS011;9383;50.928;12.116;2023-03-20T13:24:32;8.68;;;7.95;;
18507;SDS011;9383;50.928;12.116;2023-03-20T13:27:12;8.18;;;7.47;;
18507;SDS011;9383;50.928;12.116;2023-03-20T13:35:29;9.85;;;8.95;;
18507;SDS011;9383;50.928;12.116;2023-03-20T13:38:17;10.27;;;9.27;;
18507;SDS011;9383;50.928;12.116;2023-03-20T13:40:51;9.35;;;8.35;;
18507;SDS011;9383;50.928;12.116;2023-03-20T13:43:30;9.95;;;8.95;;
18507;SDS011;9383;50.928;12.116;2023-03-20T13:46:03;11.07;;;10.07;;
18507;SDS011;9383;50.928;12.116;2023-03-20T13:48:37;11.25;;;10.07;;
18507;SDS011;9383;50.928;12.116;2023-03-20T13:54:12;11.80;;;10.63;;
18507;SDS011;9383;50.928;12.116;2023-03-20T13:57:19;11.43;;;10.43;;
18507;SDS011;9383;50.928;12.116;2023-03-20T14:00:16;9.68;;;8.70;;
18507;SDS011;9383;50.928;12.116;2023-03-20T14:03:10;10.00;;;9.10;;
18507;SDS011;9383;50.928;12.116;2023-03-20T14:05:57;8.50;;;7.78;;
18507;SDS011;9383;50.928;12.116;2023-03-20T14:11:07;6.63;;;6.13;;
18507;SDS011;9383;50.928;12.116;2023-03-20T14:13:38;7.18;;;5.90;;
18507;SDS011;9383;50.928;12.116;2023-03-20T14:16:09;6.30;;;5.78;;
18507;SDS011;9383;50.928;12.116;2023-03-20T14:18:40;5.40;;;4.90;;
18507;SDS011;9383;50.928;12.116;2023-03-20T14:21:13;5.55;;;5.05;;
18507;SDS011;9383;50.928;12.116;2023-03-20T14:23:49;5.10;;;4.70;;
18507;SDS011;9383;50.928;12.116;2023-03-20T14:26:22;4.50;;;4.20;;
18507;SDS011;9383;50.928;12.116;2023-03-20T14:33:53;4.47;;;4.07;;
18507;SDS011;9383;50.928;12.116;2023-03-20T14:36:26;3.90;;;3.50;;
18507;SDS011;9383;50.928;12.116;2023-03-20T14:39:13;4.40;;;3.80;;
18507;SDS011;9383;50.928;12.116;2023-03-20T14:41:48;4.30;;;3.85;;
18507;SDS011;9383;50.928;12.116;2023-03-20T14:50:36;4.05;;;3.65;;
18507;SDS011;9383;50.928;12.116;2023-03-20T14:53:25;3.65;;;3.35;;
18507;SDS011;9383;50.928;12.116;2023-03-20T14:58:39;3.65;;;3.33;;
18507;SDS011;9383;50.928;12.116;2023-03-20T15:03:58;3.75;;;3.45;;
18507;SDS011;9383;50.928;12.116;2023-03-20T15:06:31;3.50;;;3.20;;
18507;SDS011;9383;50.928;12.116;2023-03-20T15:09:00;3.28;;;3.08;;
18507;SDS011;9383;50.928;12.116;2023-03-20T15:11:33;3.30;;;3.00;;
18507;SDS011;9383;50.928;12.116;2023-03-20T15:14:00;3.67;;;3.38;;
18507;SDS011;9383;50.928;12.116;2023-03-20T15:16:31;3.50;;;3.20;;
18507;SDS011;9383;50.928;12.116;2023-03-20T15:19:00;3.40;;;3.10;;
18507;SDS011;9383;50.928;12.116;2023-03-20T15:21:32;3.65;;;3.35;;
18507;SDS011;9383;50.928;12.116;2023-03-20T15:24:01;3.47;;;3.17;;
18507;SDS011;9383;50.928;12.116;2023-03-20T15:26:30;3.67;;;3.40;;
18507;SDS011;9383;50.928;12.116;2023-03-20T15:28:59;3.33;;;3.13;;
18507;SDS011;9383;50.928;12.116;2023-03-20T15:31:31;3.30;;;3.10;;
18507;SDS011;9383;50.928;12.116;2023-03-20T15:34:02;3.00;;;2.80;;
18507;SDS011;9383;50.928;12.116;2023-03-20T15:36:34;3.10;;;2.90;;
18507;SDS011;9383;50.928;12.116;2023-03-20T15:39:14;3.28;;;3.08;;
18507;SDS011;9383;50.928;12.116;2023-03-20T15:41:51;3.30;;;3.00;;
18507;SDS011;9383;50.928;12.116;2023-03-20T15:44:26;3.10;;;2.90;;
18507;SDS011;9383;50.928;12.116;2023-03-20T15:49:35;4.15;;;3.83;;
18507;SDS011;9383;50.928;12.116;2023-03-20T15:55:03;6.45;;;5.82;;
18507;SDS011;9383;50.928;12.116;2023-03-20T15:57:33;3.63;;;3.28;;
18507;SDS011;9383;50.928;12.116;2023-03-20T16:00:03;3.63;;;3.33;;
18507;SDS011;9383;50.928;12.116;2023-03-20T16:02:37;2.90;;;2.70;;
18507;SDS011;9383;50.928;12.116;2023-03-20T16:05:04;2.83;;;2.63;;
18507;SDS011;9383;50.928;12.116;2023-03-20T16:07:37;3.10;;;2.80;;
18507;SDS011;9383;50.928;12.116;2023-03-20T16:10:14;2.60;;;2.40;;
18507;SDS011;9383;50.928;12.116;2023-03-20T16:12:49;2.80;;;2.60;;
18507;SDS011;9383;50.928;12.116;2023-03-20T16:15:18;3.10;;;2.90;;
18507;SDS011;9383;50.928;12.116;2023-03-20T16:17:49;3.80;;;3.03;;
18507;SDS011;9383;50.928;12.116;2023-03-20T16:20:18;3.30;;;3.10;;
18507;SDS011;9383;50.928;12.116;2023-03-20T16:22:46;3.28;;;3.00;;
18507;SDS011;9383;50.928;12.116;2023-03-20T16:25:15;3.15;;;2.90;;
18507;SDS011;9383;50.928;12.116;2023-03-20T16:27:44;4.15;;;2.80;;
18507;SDS011;9383;50.928;12.116;2023-03-20T16:30:22;2.85;;;2.65;;
18507;SDS011;9383;50.928;12.116;2023-03-20T16:32:57;3.50;;;3.17;;
18507;SDS011;9383;50.928;12.116;2023-03-20T16:35:29;3.00;;;2.80;;
18507;SDS011;9383;50.928;12.116;2023-03-20T16:38:28;3.22;;;3.00;;
18507;SDS011;9383;50.928;12.116;2023-03-20T16:41:13;3.30;;;2.90;;
18507;SDS011;9383;50.928;12.116;2023-03-20T16:43:44;3.33;;;3.13;;
18507;SDS011;9383;50.928;12.116;2023-03-20T16:46:16;3.22;;;2.88;;
18507;SDS011;9383;50.928;12.116;2023-03-20T16:48:49;3.13;;;2.92;;
18507;SDS011;9383;50.928;12.116;2023-03-20T16:51:27;3.35;;;3.10;;
18507;SDS011;9383;50.928;12.116;2023-03-20T16:53:56;3.70;;;3.40;;
18507;SDS011;9383;50.928;12.116;2023-03-20T16:56:35;3.80;;;3.50;;
18507;SDS011;9383;50.928;12.116;2023-03-20T16:59:06;3.50;;;3.20;;
18507;SDS011;9383;50.928;12.116;2023-03-20T17:01:34;5.13;;;4.57;;
18507;SDS011;9383;50.928;12.116;2023-03-20T17:04:22;3.40;;;3.08;;
18507;SDS011;9383;50.928;12.116;2023-03-20T17:06:54;3.80;;;3.50;;
18507;SDS011;9383;50.928;12.116;2023-03-20T17:09:24;2.97;;;2.78;;
18507;SDS011;9383;50.928;12.116;2023-03-20T17:11:59;3.20;;;2.97;;
18507;SDS011;9383;50.928;12.116;2023-03-20T17:14:28;3.22;;;3.03;;
18507;SDS011;9383;50.928;12.116;2023-03-20T17:16:55;3.00;;;2.80;;